sensor_id;sensor_type;location;lat;lon;timestamp;P1;durP1;ratioP1;P2;durP2;ratioP2
21233;SDS011;10774;42.178;26.578;2023-04-16T00:02:13;16.98;;;6.53;;
21233;SDS011;10774;42.178;26.578;2023-04-16T00:04:39;22.23;;;6.68;;
21233;SDS011;10774;42.178;26.578;2023-04-16T00:07:05;27.70;;;7.38;;
21233;SDS011;10774;42.178;26.578;2023-04-16T00:09:30;17.73;;;6.05;;
21233;SDS011;10774;42.178;26.578;2023-04-16T00:11:56;20.05;;;6.22;;
21233;SDS011;10774;42.178;26.578;2023-04-16T00:14:21;15.40;;;6.60;;
21233;SDS011;10774;42.178;26.578;2023-04-16T00:16:46;19.10;;;6.00;;
21233;SDS011;10774;42.178;26.578;2023-04-16T00:19:12;16.38;;;6.45;;
21233;SDS011;10774;42.178;26.578;2023-04-16T00:21:37;19.48;;;6.20;;
21233;SDS011;10774;42.178;26.578;2023-04-16T00:24:03;16.77;;;5.70;;
21233;SDS011;10774;42.178;26.578;2023-04-16T00:26:28;17.80;;;6.15;;
21233;SDS011;10774;42.178;26.578;2023-04-16T00:28:54;17.85;;;6.00;;
21233;SDS011;10774;42.178;26.578;2023-04-16T00:31:29;17.77;;;5.85;;
21233;SDS011;10774;42.178;26.578;2023-04-16T00:33:55;17.83;;;6.43;;
21233;SDS011;10774;42.178;26.578;2023-04-16T00:36:22;21.80;;;6.80;;
21233;SDS011;10774;42.178;26.578;2023-04-16T00:38:48;18.17;;;6.97;;
21233;SDS011;10774;42.178;26.578;2023-04-16T00:41:13;22.05;;;7.43;;
21233;SDS011;10774;42.178;26.578;2023-04-16T00:43:39;20.65;;;7.32;;
21233;SDS011;10774;42.178;26.578;2023-04-16T00:46:04;27.08;;;7.88;;
21233;SDS011;10774;42.178;26.578;2023-04-16T00:48:34;18.75;;;8.32;;
21233;SDS011;10774;42.178;26.578;2023-04-16T00:51:04;24.83;;;8.82;;
21233;SDS011;10774;42.178;26.578;2023-04-16T00:53:31;18.42;;;8.00;;
21233;SDS011;10774;42.178;26.578;2023-04-16T00:55:58;26.23;;;8.80;;
21233;SDS011;10774;42.178;26.578;2023-04-16T00:58:24;21.05;;;8.38;;
21233;SDS011;10774;42.178;26.578;2023-04-16T01:00:49;22.40;;;8.75;;
21233;SDS011;10774;42.178;26.578;2023-04-16T01:03:15;19.52;;;8.35;;
21233;SDS011;10774;42.178;26.578;2023-04-16T01:05:40;23.77;;;8.52;;
21233;SDS011;10774;42.178;26.578;2023-04-16T01:08:13;23.08;;;8.65;;
21233;SDS011;10774;42.178;26.578;2023-04-16T01:10:42;23.38;;;8.75;;
21233;SDS011;10774;42.178;26.578;2023-04-16T01:13:08;28.33;;;10.23;;
21233;SDS011;10774;42.178;26.578;2023-04-16T01:15:33;23.45;;;9.40;;
21233;SDS011;10774;42.178;26.578;2023-04-16T01:17:59;24.80;;;8.95;;
21233;SDS011;10774;42.178;26.578;2023-04-16T01:20:24;26.02;;;11.23;;
21233;SDS011;10774;42.178;26.578;2023-04-16T01:22:50;28.75;;;10.10;;
21233;SDS011;10774;42.178;26.578;2023-04-16T01:25:15;25.88;;;10.88;;
21233;SDS011;10774;42.178;26.578;2023-04-16T01:27:41;26.20;;;9.98;;
21233;SDS011;10774;42.178;26.578;2023-04-16T01:30:06;27.08;;;9.48;;
21233;SDS011;10774;42.178;26.578;2023-04-16T01:32:32;22.88;;;9.68;;
21233;SDS011;10774;42.178;26.578;2023-04-16T01:34:57;22.17;;;9.68;;
21233;SDS011;10774;42.178;26.578;2023-04-16T01:37:23;27.88;;;9.85;;
21233;SDS011;10774;42.178;26.578;2023-04-16T01:39:48;24.50;;;8.90;;
21233;SDS011;10774;42.178;26.578;2023-04-16T01:42:14;28.58;;;9.98;;
21233;SDS011;10774;42.178;26.578;2023-04-16T01:44:39;26.98;;;9.95;;
21233;SDS011;10774;42.178;26.578;2023-04-16T01:47:04;26.10;;;9.73;;
21233;SDS011;10774;42.178;26.578;2023-04-16T01:49:30;27.52;;;9.63;;
21233;SDS011;10774;42.178;26.578;2023-04-16T01:51:55;26.77;;;9.95;;
21233;SDS011;10774;42.178;26.578;2023-04-16T01:54:21;25.05;;;9.45;;
21233;SDS011;10774;42.178;26.578;2023-04-16T01:56:46;26.13;;;9.35;;
21233;SDS011;10774;42.178;26.578;2023-04-16T01:59:12;22.95;;;9.35;;
21233;SDS011;10774;42.178;26.578;2023-04-16T02:01:37;24.92;;;9.30;;
21233;SDS011;10774;42.178;26.578;2023-04-16T02:04:03;22.50;;;8.85;;
21233;SDS011;10774;42.178;26.578;2023-04-16T02:06:29;24.40;;;9.48;;
21233;SDS011;10774;42.178;26.578;2023-04-16T02:08:55;19.50;;;8.93;;
21233;SDS011;10774;42.178;26.578;2023-04-16T02:11:20;26.10;;;9.15;;
21233;SDS011;10774;42.178;26.578;2023-04-16T02:13:46;27.63;;;9.48;;
21233;SDS011;10774;42.178;26.578;2023-04-16T02:16:11;20.83;;;8.57;;
21233;SDS011;10774;42.178;26.578;2023-04-16T02:18:37;19.65;;;8.90;;
21233;SDS011;10774;42.178;26.578;2023-04-16T02:21:02;22.60;;;10.38;;
21233;SDS011;10774;42.178;26.578;2023-04-16T02:23:30;24.92;;;9.15;;
21233;SDS011;10774;42.178;26.578;2023-04-16T02:25:55;20.63;;;8.90;;
21233;SDS011;10774;42.178;26.578;2023-04-16T02:28:22;26.27;;;9.35;;
21233;SDS011;10774;42.178;26.578;2023-04-16T02:30:47;19.85;;;8.48;;
21233;SDS011;10774;42.178;26.578;2023-04-16T02:33:12;23.60;;;8.57;;
21233;SDS011;10774;42.178;26.578;2023-04-16T02:35:38;17.58;;;8.48;;
21233;SDS011;10774;42.178;26.578;2023-04-16T02:38:04;25.77;;;8.88;;
21233;SDS011;10774;42.178;26.578;2023-04-16T02:40:30;22.55;;;7.80;;
21233;SDS011;10774;42.178;26.578;2023-04-16T02:42:56;22.95;;;9.32;;
21233;SDS011;10774;42.178;26.578;2023-04-16T02:45:22;22.67;;;8.75;;
21233;SDS011;10774;42.178;26.578;2023-04-16T02:47:47;25.38;;;10.23;;
21233;SDS011;10774;42.178;26.578;2023-04-16T02:50:13;28.02;;;14.00;;
21233;SDS011;10774;42.178;26.578;2023-04-16T02:52:39;27.55;;;12.48;;
21233;SDS011;10774;42.178;26.578;2023-04-16T02:55:05;28.50;;;11.82;;
21233;SDS011;10774;42.178;26.578;2023-04-16T02:57:31;19.58;;;9.90;;
21233;SDS011;10774;42.178;26.578;2023-04-16T02:59:56;26.90;;;10.25;;
21233;SDS011;10774;42.178;26.578;2023-04-16T03:02:22;18.90;;;8.93;;
21233;SDS011;10774;42.178;26.578;2023-04-16T03:04:47;23.42;;;8.88;;
21233;SDS011;10774;42.178;26.578;2023-04-16T03:07:13;22.13;;;8.77;;
21233;SDS011;10774;42.178;26.578;2023-04-16T03:09:39;20.05;;;7.82;;
21233;SDS011;10774;42.178;26.578;2023-04-16T03:12:04;21.35;;;8.15;;
21233;SDS011;10774;42.178;26.578;2023-04-16T03:14:30;15.95;;;7.07;;
21233;SDS011;10774;42.178;26.578;2023-04-16T03:16:56;19.00;;;7.93;;
21233;SDS011;10774;42.178;26.578;2023-04-16T03:19:21;19.33;;;7.47;;
21233;SDS011;10774;42.178;26.578;2023-04-16T03:21:47;28.10;;;8.13;;
21233;SDS011;10774;42.178;26.578;2023-04-16T03:24:12;17.92;;;6.97;;
21233;SDS011;10774;42.178;26.578;2023-04-16T03:26:38;19.52;;;7.95;;
21233;SDS011;10774;42.178;26.578;2023-04-16T03:29:03;21.60;;;7.97;;
21233;SDS011;10774;42.178;26.578;2023-04-16T03:31:29;22.48;;;8.13;;
21233;SDS011;10774;42.178;26.578;2023-04-16T03:33:54;18.70;;;9.48;;
21233;SDS011;10774;42.178;26.578;2023-04-16T03:36:20;22.60;;;10.00;;
21233;SDS011;10774;42.178;26.578;2023-04-16T03:38:47;24.00;;;8.75;;
21233;SDS011;10774;42.178;26.578;2023-04-16T03:41:12;20.67;;;9.00;;
21233;SDS011;10774;42.178;26.578;2023-04-16T03:43:38;21.83;;;11.07;;
21233;SDS011;10774;42.178;26.578;2023-04-16T03:46:03;22.52;;;9.73;;
21233;SDS011;10774;42.178;26.578;2023-04-16T03:48:29;24.40;;;9.70;;
21233;SDS011;10774;42.178;26.578;2023-04-16T03:50:54;21.88;;;9.82;;
21233;SDS011;10774;42.178;26.578;2023-04-16T03:53:20;29.52;;;19.00;;
21233;SDS011;10774;42.178;26.578;2023-04-16T03:55:48;26.50;;;10.65;;
21233;SDS011;10774;42.178;26.578;2023-04-16T03:58:15;19.95;;;9.40;;
21233;SDS011;10774;42.178;26.578;2023-04-16T04:00:41;21.73;;;8.02;;
21233;SDS011;10774;42.178;26.578;2023-04-16T04:03:07;30.17;;;9.60;;
21233;SDS011;10774;42.178;26.578;2023-04-16T04:05:39;27.00;;;8.68;;
21233;SDS011;10774;42.178;26.578;2023-04-16T04:08:05;18.80;;;8.98;;
21233;SDS011;10774;42.178;26.578;2023-04-16T04:10:32;21.67;;;8.10;;
21233;SDS011;10774;42.178;26.578;2023-04-16T04:12:58;22.58;;;9.00;;
21233;SDS011;10774;42.178;26.578;2023-04-16T04:15:24;21.10;;;9.10;;
21233;SDS011;10774;42.178;26.578;2023-04-16T04:17:50;16.15;;;8.30;;
21233;SDS011;10774;42.178;26.578;2023-04-16T04:20:15;20.27;;;9.30;;
21233;SDS011;10774;42.178;26.578;2023-04-16T04:22:41;29.60;;;11.82;;
21233;SDS011;10774;42.178;26.578;2023-04-16T04:25:07;68.07;;;31.15;;
21233;SDS011;10774;42.178;26.578;2023-04-16T04:27:34;49.40;;;21.52;;
21233;SDS011;10774;42.178;26.578;2023-04-16T04:29:59;38.28;;;18.50;;
21233;SDS011;10774;42.178;26.578;2023-04-16T04:32:25;28.88;;;14.80;;
21233;SDS011;10774;42.178;26.578;2023-04-16T04:34:50;27.35;;;11.90;;
21233;SDS011;10774;42.178;26.578;2023-04-16T04:37:16;27.13;;;10.70;;
21233;SDS011;10774;42.178;26.578;2023-04-16T04:39:41;21.67;;;9.70;;
21233;SDS011;10774;42.178;26.578;2023-04-16T04:42:06;20.33;;;8.98;;
21233;SDS011;10774;42.178;26.578;2023-04-16T04:44:32;17.95;;;8.75;;
21233;SDS011;10774;42.178;26.578;2023-04-16T04:46:57;25.00;;;9.30;;
21233;SDS011;10774;42.178;26.578;2023-04-16T04:49:23;26.70;;;8.57;;
21233;SDS011;10774;42.178;26.578;2023-04-16T04:51:48;21.40;;;8.60;;
21233;SDS011;10774;42.178;26.578;2023-04-16T04:54:14;20.33;;;7.90;;
21233;SDS011;10774;42.178;26.578;2023-04-16T04:56:39;21.13;;;8.25;;
21233;SDS011;10774;42.178;26.578;2023-04-16T04:59:05;21.52;;;8.15;;
21233;SDS011;10774;42.178;26.578;2023-04-16T05:01:30;17.33;;;8.27;;
21233;SDS011;10774;42.178;26.578;2023-04-16T05:03:55;17.58;;;7.85;;
21233;SDS011;10774;42.178;26.578;2023-04-16T05:06:21;24.35;;;8.15;;
21233;SDS011;10774;42.178;26.578;2023-04-16T05:08:46;15.45;;;6.43;;
21233;SDS011;10774;42.178;26.578;2023-04-16T05:11:12;18.80;;;7.65;;
21233;SDS011;10774;42.178;26.578;2023-04-16T05:13:37;19.08;;;7.85;;
21233;SDS011;10774;42.178;26.578;2023-04-16T05:16:03;18.85;;;7.55;;
21233;SDS011;10774;42.178;26.578;2023-04-16T05:18:28;24.67;;;7.65;;
21233;SDS011;10774;42.178;26.578;2023-04-16T05:20:54;28.30;;;8.50;;
21233;SDS011;10774;42.178;26.578;2023-04-16T05:23:19;25.92;;;8.38;;
21233;SDS011;10774;42.178;26.578;2023-04-16T05:25:45;21.15;;;7.38;;
21233;SDS011;10774;42.178;26.578;2023-04-16T05:28:10;25.33;;;9.00;;
21233;SDS011;10774;42.178;26.578;2023-04-16T05:30:36;24.25;;;10.45;;
21233;SDS011;10774;42.178;26.578;2023-04-16T05:33:01;23.15;;;7.85;;
21233;SDS011;10774;42.178;26.578;2023-04-16T05:35:26;18.25;;;8.35;;
21233;SDS011;10774;42.178;26.578;2023-04-16T05:37:52;21.23;;;7.30;;
21233;SDS011;10774;42.178;26.578;2023-04-16T05:40:17;17.45;;;6.13;;
21233;SDS011;10774;42.178;26.578;2023-04-16T05:42:43;18.50;;;6.90;;
21233;SDS011;10774;42.178;26.578;2023-04-16T05:45:08;22.30;;;8.30;;
21233;SDS011;10774;42.178;26.578;2023-04-16T05:47:34;26.73;;;9.70;;
21233;SDS011;10774;42.178;26.578;2023-04-16T05:50:00;24.75;;;9.43;;
21233;SDS011;10774;42.178;26.578;2023-04-16T05:52:25;27.23;;;8.70;;
21233;SDS011;10774;42.178;26.578;2023-04-16T05:54:50;17.45;;;7.03;;
21233;SDS011;10774;42.178;26.578;2023-04-16T05:57:16;23.17;;;7.20;;
21233;SDS011;10774;42.178;26.578;2023-04-16T05:59:41;18.05;;;7.30;;
21233;SDS011;10774;42.178;26.578;2023-04-16T06:02:07;19.92;;;7.75;;
21233;SDS011;10774;42.178;26.578;2023-04-16T06:04:32;19.95;;;8.00;;
21233;SDS011;10774;42.178;26.578;2023-04-16T06:06:59;21.70;;;7.95;;
21233;SDS011;10774;42.178;26.578;2023-04-16T06:09:25;22.15;;;10.88;;
21233;SDS011;10774;42.178;26.578;2023-04-16T06:11:50;24.48;;;10.07;;
21233;SDS011;10774;42.178;26.578;2023-04-16T06:14:16;21.88;;;6.70;;
21233;SDS011;10774;42.178;26.578;2023-04-16T06:16:41;17.83;;;6.80;;
21233;SDS011;10774;42.178;26.578;2023-04-16T06:19:06;16.13;;;6.22;;
21233;SDS011;10774;42.178;26.578;2023-04-16T06:21:32;16.77;;;6.40;;
21233;SDS011;10774;42.178;26.578;2023-04-16T06:23:57;19.05;;;6.88;;
21233;SDS011;10774;42.178;26.578;2023-04-16T06:26:23;19.63;;;6.93;;
21233;SDS011;10774;42.178;26.578;2023-04-16T06:28:48;15.38;;;6.70;;
21233;SDS011;10774;42.178;26.578;2023-04-16T06:31:14;18.65;;;6.90;;
21233;SDS011;10774;42.178;26.578;2023-04-16T06:33:39;18.48;;;7.35;;
21233;SDS011;10774;42.178;26.578;2023-04-16T06:36:05;20.13;;;8.15;;
21233;SDS011;10774;42.178;26.578;2023-04-16T06:38:31;20.77;;;7.30;;
21233;SDS011;10774;42.178;26.578;2023-04-16T06:40:56;18.00;;;6.25;;
21233;SDS011;10774;42.178;26.578;2023-04-16T06:43:23;20.23;;;7.25;;
21233;SDS011;10774;42.178;26.578;2023-04-16T06:45:48;16.00;;;6.72;;
21233;SDS011;10774;42.178;26.578;2023-04-16T06:48:14;14.23;;;6.47;;
21233;SDS011;10774;42.178;26.578;2023-04-16T06:50:40;16.15;;;6.82;;
21233;SDS011;10774;42.178;26.578;2023-04-16T06:53:05;24.02;;;7.95;;
21233;SDS011;10774;42.178;26.578;2023-04-16T06:55:31;20.67;;;8.45;;
21233;SDS011;10774;42.178;26.578;2023-04-16T06:57:56;19.42;;;8.75;;
21233;SDS011;10774;42.178;26.578;2023-04-16T07:00:22;18.75;;;9.35;;
21233;SDS011;10774;42.178;26.578;2023-04-16T07:02:47;25.00;;;15.68;;
21233;SDS011;10774;42.178;26.578;2023-04-16T07:05:13;27.30;;;13.48;;
21233;SDS011;10774;42.178;26.578;2023-04-16T07:07:38;23.08;;;8.73;;
21233;SDS011;10774;42.178;26.578;2023-04-16T07:10:03;21.27;;;8.45;;
21233;SDS011;10774;42.178;26.578;2023-04-16T07:12:30;13.77;;;7.95;;
21233;SDS011;10774;42.178;26.578;2023-04-16T07:14:56;20.13;;;8.32;;
21233;SDS011;10774;42.178;26.578;2023-04-16T07:17:21;17.55;;;8.15;;
21233;SDS011;10774;42.178;26.578;2023-04-16T07:19:47;17.65;;;9.10;;
21233;SDS011;10774;42.178;26.578;2023-04-16T07:22:12;16.98;;;9.77;;
21233;SDS011;10774;42.178;26.578;2023-04-16T07:24:38;31.75;;;16.27;;
21233;SDS011;10774;42.178;26.578;2023-04-16T07:27:03;25.65;;;14.15;;
21233;SDS011;10774;42.178;26.578;2023-04-16T07:29:29;21.95;;;10.35;;
21233;SDS011;10774;42.178;26.578;2023-04-16T07:31:54;16.75;;;8.20;;
21233;SDS011;10774;42.178;26.578;2023-04-16T07:34:20;14.40;;;7.78;;
21233;SDS011;10774;42.178;26.578;2023-04-16T07:36:45;12.35;;;5.70;;
21233;SDS011;10774;42.178;26.578;2023-04-16T07:39:11;8.55;;;4.53;;
21233;SDS011;10774;42.178;26.578;2023-04-16T07:41:37;10.82;;;4.75;;
21233;SDS011;10774;42.178;26.578;2023-04-16T07:44:04;4.82;;;2.92;;
21233;SDS011;10774;42.178;26.578;2023-04-16T07:46:30;3.90;;;1.90;;
21233;SDS011;10774;42.178;26.578;2023-04-16T07:48:55;3.60;;;1.52;;
21233;SDS011;10774;42.178;26.578;2023-04-16T07:51:21;3.65;;;1.80;;
21233;SDS011;10774;42.178;26.578;2023-04-16T07:53:47;3.00;;;1.63;;
21233;SDS011;10774;42.178;26.578;2023-04-16T07:56:12;8.85;;;4.65;;
21233;SDS011;10774;42.178;26.578;2023-04-16T07:58:38;6.43;;;3.88;;
21233;SDS011;10774;42.178;26.578;2023-04-16T08:01:03;9.73;;;6.05;;
21233;SDS011;10774;42.178;26.578;2023-04-16T08:03:29;7.07;;;2.92;;
21233;SDS011;10774;42.178;26.578;2023-04-16T08:05:54;5.53;;;2.50;;
21233;SDS011;10774;42.178;26.578;2023-04-16T08:08:20;6.10;;;3.40;;
21233;SDS011;10774;42.178;26.578;2023-04-16T08:10:46;2.95;;;1.90;;
21233;SDS011;10774;42.178;26.578;2023-04-16T08:13:11;4.57;;;1.95;;
21233;SDS011;10774;42.178;26.578;2023-04-16T08:15:37;3.67;;;2.40;;
21233;SDS011;10774;42.178;26.578;2023-04-16T08:18:02;4.00;;;2.58;;
21233;SDS011;10774;42.178;26.578;2023-04-16T08:20:29;3.60;;;2.17;;
21233;SDS011;10774;42.178;26.578;2023-04-16T08:22:55;6.18;;;3.17;;
21233;SDS011;10774;42.178;26.578;2023-04-16T08:25:21;3.67;;;2.42;;
21233;SDS011;10774;42.178;26.578;2023-04-16T08:27:48;2.10;;;1.45;;
21233;SDS011;10774;42.178;26.578;2023-04-16T08:30:14;4.15;;;1.67;;
21233;SDS011;10774;42.178;26.578;2023-04-16T08:32:41;2.10;;;1.40;;
21233;SDS011;10774;42.178;26.578;2023-04-16T08:35:07;3.17;;;1.42;;
21233;SDS011;10774;42.178;26.578;2023-04-16T08:37:33;2.22;;;0.93;;
21233;SDS011;10774;42.178;26.578;2023-04-16T08:39:59;4.50;;;1.38;;
21233;SDS011;10774;42.178;26.578;2023-04-16T08:42:47;2.63;;;1.48;;
21233;SDS011;10774;42.178;26.578;2023-04-16T08:45:19;6.72;;;2.03;;
21233;SDS011;10774;42.178;26.578;2023-04-16T08:47:45;3.17;;;2.20;;
21233;SDS011;10774;42.178;26.578;2023-04-16T08:50:15;4.68;;;2.60;;
21233;SDS011;10774;42.178;26.578;2023-04-16T08:52:49;9.20;;;3.38;;
21233;SDS011;10774;42.178;26.578;2023-04-16T08:55:21;6.32;;;2.83;;
21233;SDS011;10774;42.178;26.578;2023-04-16T08:58:18;7.32;;;2.90;;
21233;SDS011;10774;42.178;26.578;2023-04-16T09:00:46;6.50;;;2.67;;
21233;SDS011;10774;42.178;26.578;2023-04-16T09:03:13;6.75;;;3.17;;
21233;SDS011;10774;42.178;26.578;2023-04-16T09:05:39;5.03;;;2.85;;
21233;SDS011;10774;42.178;26.578;2023-04-16T09:08:06;4.60;;;2.20;;
21233;SDS011;10774;42.178;26.578;2023-04-16T09:10:32;4.88;;;2.35;;
21233;SDS011;10774;42.178;26.578;2023-04-16T09:12:57;7.00;;;3.25;;
21233;SDS011;10774;42.178;26.578;2023-04-16T09:15:23;9.25;;;3.78;;
21233;SDS011;10774;42.178;26.578;2023-04-16T09:17:53;9.23;;;4.40;;
21233;SDS011;10774;42.178;26.578;2023-04-16T09:20:20;10.25;;;5.55;;
21233;SDS011;10774;42.178;26.578;2023-04-16T09:22:45;10.20;;;4.78;;
21233;SDS011;10774;42.178;26.578;2023-04-16T09:25:11;14.52;;;9.77;;
21233;SDS011;10774;42.178;26.578;2023-04-16T09:27:37;9.40;;;5.73;;
21233;SDS011;10774;42.178;26.578;2023-04-16T09:30:19;8.68;;;5.55;;
21233;SDS011;10774;42.178;26.578;2023-04-16T09:32:48;5.18;;;3.80;;
21233;SDS011;10774;42.178;26.578;2023-04-16T09:35:15;7.93;;;3.92;;
21233;SDS011;10774;42.178;26.578;2023-04-16T09:37:42;9.63;;;5.50;;
21233;SDS011;10774;42.178;26.578;2023-04-16T09:40:07;26.10;;;17.75;;
21233;SDS011;10774;42.178;26.578;2023-04-16T09:42:34;4.13;;;3.10;;
21233;SDS011;10774;42.178;26.578;2023-04-16T09:45:01;5.05;;;2.80;;
21233;SDS011;10774;42.178;26.578;2023-04-16T09:47:40;9.95;;;3.60;;
21233;SDS011;10774;42.178;26.578;2023-04-16T09:50:13;11.25;;;5.72;;
21233;SDS011;10774;42.178;26.578;2023-04-16T09:52:41;8.63;;;5.20;;
21233;SDS011;10774;42.178;26.578;2023-04-16T09:55:09;6.85;;;4.38;;
21233;SDS011;10774;42.178;26.578;2023-04-16T09:57:35;9.40;;;6.65;;
21233;SDS011;10774;42.178;26.578;2023-04-16T10:00:05;9.75;;;6.28;;
21233;SDS011;10774;42.178;26.578;2023-04-16T10:02:32;7.18;;;4.50;;
21233;SDS011;10774;42.178;26.578;2023-04-16T10:04:59;5.78;;;2.78;;
21233;SDS011;10774;42.178;26.578;2023-04-16T10:07:27;10.82;;;5.05;;
21233;SDS011;10774;42.178;26.578;2023-04-16T10:09:53;7.75;;;5.00;;
21233;SDS011;10774;42.178;26.578;2023-04-16T10:12:20;9.57;;;5.47;;
21233;SDS011;10774;42.178;26.578;2023-04-16T10:14:45;6.97;;;4.75;;
21233;SDS011;10774;42.178;26.578;2023-04-16T10:17:11;8.05;;;4.30;;
21233;SDS011;10774;42.178;26.578;2023-04-16T10:19:37;7.95;;;4.70;;
21233;SDS011;10774;42.178;26.578;2023-04-16T10:22:04;7.30;;;4.10;;
21233;SDS011;10774;42.178;26.578;2023-04-16T10:24:30;4.20;;;2.85;;
21233;SDS011;10774;42.178;26.578;2023-04-16T10:26:56;5.35;;;3.50;;
21233;SDS011;10774;42.178;26.578;2023-04-16T10:29:22;12.50;;;8.00;;
21233;SDS011;10774;42.178;26.578;2023-04-16T10:31:50;12.60;;;8.18;;
21233;SDS011;10774;42.178;26.578;2023-04-16T10:34:17;11.73;;;8.25;;
21233;SDS011;10774;42.178;26.578;2023-04-16T10:36:46;7.35;;;4.30;;
21233;SDS011;10774;42.178;26.578;2023-04-16T10:39:18;7.15;;;2.50;;
21233;SDS011;10774;42.178;26.578;2023-04-16T10:41:45;8.15;;;2.72;;
21233;SDS011;10774;42.178;26.578;2023-04-16T10:44:11;7.43;;;3.70;;
21233;SDS011;10774;42.178;26.578;2023-04-16T10:46:40;11.02;;;7.63;;
21233;SDS011;10774;42.178;26.578;2023-04-16T10:49:23;5.18;;;2.17;;
21233;SDS011;10774;42.178;26.578;2023-04-16T10:51:56;5.90;;;3.80;;
21233;SDS011;10774;42.178;26.578;2023-04-16T10:54:31;7.72;;;4.85;;
21233;SDS011;10774;42.178;26.578;2023-04-16T10:57:03;6.45;;;3.33;;
21233;SDS011;10774;42.178;26.578;2023-04-16T10:59:31;4.72;;;3.08;;
21233;SDS011;10774;42.178;26.578;2023-04-16T11:01:59;4.28;;;2.42;;
21233;SDS011;10774;42.178;26.578;2023-04-16T11:04:32;5.03;;;2.15;;
21233;SDS011;10774;42.178;26.578;2023-04-16T11:07:06;5.15;;;2.15;;
21233;SDS011;10774;42.178;26.578;2023-04-16T11:09:41;7.03;;;2.30;;
21233;SDS011;10774;42.178;26.578;2023-04-16T11:12:08;4.40;;;1.48;;
21233;SDS011;10774;42.178;26.578;2023-04-16T11:14:37;3.63;;;2.17;;
21233;SDS011;10774;42.178;26.578;2023-04-16T11:17:04;7.53;;;4.00;;
21233;SDS011;10774;42.178;26.578;2023-04-16T11:19:30;3.55;;;1.45;;
21233;SDS011;10774;42.178;26.578;2023-04-16T11:21:55;5.57;;;1.58;;
21233;SDS011;10774;42.178;26.578;2023-04-16T11:24:22;3.60;;;2.00;;
21233;SDS011;10774;42.178;26.578;2023-04-16T11:26:49;3.22;;;1.70;;
21233;SDS011;10774;42.178;26.578;2023-04-16T11:29:15;3.42;;;1.73;;
21233;SDS011;10774;42.178;26.578;2023-04-16T11:31:41;3.63;;;1.50;;
21233;SDS011;10774;42.178;26.578;2023-04-16T11:34:07;2.75;;;1.20;;
21233;SDS011;10774;42.178;26.578;2023-04-16T11:36:47;2.42;;;1.20;;
21233;SDS011;10774;42.178;26.578;2023-04-16T11:39:14;1.55;;;0.88;;
21233;SDS011;10774;42.178;26.578;2023-04-16T11:41:43;3.63;;;2.00;;
21233;SDS011;10774;42.178;26.578;2023-04-16T11:44:22;4.03;;;1.80;;
21233;SDS011;10774;42.178;26.578;2023-04-16T11:46:49;3.75;;;1.20;;
21233;SDS011;10774;42.178;26.578;2023-04-16T11:49:16;3.38;;;1.38;;
21233;SDS011;10774;42.178;26.578;2023-04-16T11:51:42;3.97;;;1.50;;
21233;SDS011;10774;42.178;26.578;2023-04-16T11:54:09;3.47;;;2.00;;
21233;SDS011;10774;42.178;26.578;2023-04-16T11:56:44;3.10;;;1.73;;
21233;SDS011;10774;42.178;26.578;2023-04-16T11:59:21;5.35;;;1.95;;
21233;SDS011;10774;42.178;26.578;2023-04-16T12:01:51;1.60;;;0.85;;
21233;SDS011;10774;42.178;26.578;2023-04-16T12:04:20;1.95;;;1.02;;
21233;SDS011;10774;42.178;26.578;2023-04-16T12:07:06;2.85;;;0.90;;
21233;SDS011;10774;42.178;26.578;2023-04-16T12:09:36;3.08;;;1.33;;
21233;SDS011;10774;42.178;26.578;2023-04-16T12:12:03;2.35;;;0.55;;
21233;SDS011;10774;42.178;26.578;2023-04-16T12:14:29;11.88;;;4.50;;
21233;SDS011;10774;42.178;26.578;2023-04-16T12:16:55;4.20;;;1.63;;
21233;SDS011;10774;42.178;26.578;2023-04-16T12:19:56;1.85;;;1.05;;
21233;SDS011;10774;42.178;26.578;2023-04-16T12:22:29;2.42;;;1.00;;
21233;SDS011;10774;42.178;26.578;2023-04-16T12:24:59;2.33;;;1.05;;
21233;SDS011;10774;42.178;26.578;2023-04-16T12:27:44;3.72;;;1.10;;
21233;SDS011;10774;42.178;26.578;2023-04-16T12:30:10;2.47;;;0.70;;
21233;SDS011;10774;42.178;26.578;2023-04-16T12:32:37;2.55;;;0.80;;
21233;SDS011;10774;42.178;26.578;2023-04-16T12:35:03;2.58;;;1.50;;
21233;SDS011;10774;42.178;26.578;2023-04-16T12:37:29;2.03;;;0.70;;
21233;SDS011;10774;42.178;26.578;2023-04-16T12:39:54;1.70;;;0.70;;
21233;SDS011;10774;42.178;26.578;2023-04-16T12:42:20;3.45;;;1.05;;
21233;SDS011;10774;42.178;26.578;2023-04-16T12:44:46;1.55;;;0.88;;
21233;SDS011;10774;42.178;26.578;2023-04-16T12:47:11;3.67;;;1.17;;
21233;SDS011;10774;42.178;26.578;2023-04-16T12:49:37;3.22;;;1.05;;
21233;SDS011;10774;42.178;26.578;2023-04-16T12:52:02;1.58;;;1.00;;
21233;SDS011;10774;42.178;26.578;2023-04-16T12:54:28;5.20;;;1.77;;
21233;SDS011;10774;42.178;26.578;2023-04-16T12:56:55;7.00;;;2.00;;
21233;SDS011;10774;42.178;26.578;2023-04-16T12:59:21;2.83;;;1.65;;
21233;SDS011;10774;42.178;26.578;2023-04-16T13:01:47;6.30;;;3.08;;
21233;SDS011;10774;42.178;26.578;2023-04-16T13:04:13;4.25;;;2.00;;
21233;SDS011;10774;42.178;26.578;2023-04-16T13:06:38;4.53;;;1.90;;
21233;SDS011;10774;42.178;26.578;2023-04-16T13:09:04;4.13;;;1.80;;
21233;SDS011;10774;42.178;26.578;2023-04-16T13:11:29;5.53;;;2.20;;
21233;SDS011;10774;42.178;26.578;2023-04-16T13:13:55;6.18;;;2.90;;
21233;SDS011;10774;42.178;26.578;2023-04-16T13:16:20;4.75;;;1.88;;
21233;SDS011;10774;42.178;26.578;2023-04-16T13:18:46;4.93;;;3.22;;
21233;SDS011;10774;42.178;26.578;2023-04-16T13:21:11;9.43;;;5.50;;
21233;SDS011;10774;42.178;26.578;2023-04-16T13:23:37;10.82;;;5.72;;
21233;SDS011;10774;42.178;26.578;2023-04-16T13:26:02;15.52;;;8.93;;
21233;SDS011;10774;42.178;26.578;2023-04-16T13:28:28;7.72;;;4.70;;
21233;SDS011;10774;42.178;26.578;2023-04-16T13:30:53;3.85;;;2.53;;
21233;SDS011;10774;42.178;26.578;2023-04-16T13:33:19;7.72;;;4.10;;
21233;SDS011;10774;42.178;26.578;2023-04-16T13:35:46;4.22;;;2.28;;
21233;SDS011;10774;42.178;26.578;2023-04-16T13:38:12;12.00;;;7.78;;
21233;SDS011;10774;42.178;26.578;2023-04-16T13:40:38;10.05;;;6.13;;
21233;SDS011;10774;42.178;26.578;2023-04-16T13:43:03;4.78;;;3.30;;
21233;SDS011;10774;42.178;26.578;2023-04-16T13:45:28;5.32;;;3.47;;
21233;SDS011;10774;42.178;26.578;2023-04-16T13:47:54;4.68;;;2.00;;
21233;SDS011;10774;42.178;26.578;2023-04-16T13:50:20;7.13;;;3.35;;
21233;SDS011;10774;42.178;26.578;2023-04-16T13:52:45;4.13;;;2.13;;
21233;SDS011;10774;42.178;26.578;2023-04-16T13:55:11;9.13;;;5.07;;
21233;SDS011;10774;42.178;26.578;2023-04-16T13:57:38;12.20;;;8.63;;
21233;SDS011;10774;42.178;26.578;2023-04-16T14:00:05;7.63;;;5.20;;
21233;SDS011;10774;42.178;26.578;2023-04-16T14:02:31;4.20;;;2.55;;
21233;SDS011;10774;42.178;26.578;2023-04-16T14:04:57;4.60;;;3.55;;
21233;SDS011;10774;42.178;26.578;2023-04-16T14:07:23;6.15;;;3.33;;
21233;SDS011;10774;42.178;26.578;2023-04-16T14:09:51;4.20;;;2.10;;
21233;SDS011;10774;42.178;26.578;2023-04-16T14:12:16;4.25;;;2.22;;
21233;SDS011;10774;42.178;26.578;2023-04-16T14:14:42;4.07;;;2.88;;
21233;SDS011;10774;42.178;26.578;2023-04-16T14:17:07;3.95;;;3.10;;
21233;SDS011;10774;42.178;26.578;2023-04-16T14:19:33;12.18;;;7.30;;
21233;SDS011;10774;42.178;26.578;2023-04-16T14:21:58;6.07;;;3.15;;
21233;SDS011;10774;42.178;26.578;2023-04-16T14:24:23;6.97;;;4.55;;